createdAt,value
2018-03-03T00:00:39.719Z,20.93
2018-03-03T00:03:08.844Z,25.03
2018-03-03T00:05:38.775Z,35.20
2018-03-03T00:08:07.600Z,173.00
2018-03-03T00:10:36.746Z,171.50
2018-03-03T00:13:06.371Z,222.90
2018-03-03T00:15:35.474Z,95.57
2018-03-03T00:18:04.391Z,144.07
2018-03-03T00:20:33.292Z,12.03
2018-03-03T00:23:02.905Z,14.50
2018-03-03T00:25:32.082Z,12.13
2018-03-03T00:28:01.088Z,9.43
2018-03-03T00:30:30.426Z,6.47
2018-03-03T00:32:59.330Z,5.57
2018-03-03T00:35:28.255Z,8.03
2018-03-03T00:37:57.230Z,9.20
2018-03-03T00:40:26.561Z,6.80
2018-03-03T00:42:55.433Z,7.77
2018-03-03T00:45:24.241Z,7.17
2018-03-03T00:47:53.125Z,8.07
2018-03-03T00:50:21.972Z,7.20
2018-03-03T00:52:51.586Z,19.57
2018-03-03T00:55:21.410Z,15.00
2018-03-03T00:57:51.036Z,42.00
2018-03-03T01:00:19.910Z,19.27
2018-03-03T01:02:48.856Z,41.57
2018-03-03T01:05:17.981Z,11.43
2018-03-03T01:07:46.923Z,20.93
2018-03-03T01:10:16.622Z,22.30
2018-03-03T01:12:45.497Z,25.10
2018-03-03T01:15:14.396Z,35.43
2018-03-03T01:17:43.276Z,39.83
2018-03-03T01:20:12.143Z,43.03
2018-03-03T01:22:41.793Z,11.40
2018-03-03T01:25:10.588Z,11.77
2018-03-03T01:27:39.455Z,10.10
2018-03-03T01:30:08.474Z,12.90
2018-03-03T01:32:38.080Z,12.07
2018-03-03T01:35:06.907Z,7.23
2018-03-03T01:37:35.758Z,9.17
2018-03-03T01:40:04.877Z,12.93
2018-03-03T01:42:34.630Z,16.87
2018-03-03T01:45:03.529Z,32.30
2018-03-03T01:47:32.409Z,30.10
2018-03-03T01:50:01.299Z,102.63
2018-03-03T01:52:30.189Z,26.87
2018-03-03T01:55:00.082Z,31.07
2018-03-03T01:57:29.087Z,24.10
2018-03-03T01:59:57.920Z,24.47
2018-03-03T02:02:27.283Z,28.20
2018-03-03T02:04:56.100Z,28.83
2018-03-03T02:07:24.957Z,27.13
2018-03-03T02:09:54.040Z,28.60
2018-03-03T02:12:22.993Z,21.40
2018-03-03T02:14:51.848Z,30.63
2018-03-03T02:17:21.142Z,40.77
2018-03-03T02:19:50.033Z,27.17
2018-03-03T02:22:19.328Z,41.23
2018-03-03T02:24:48.149Z,30.50
2018-03-03T02:27:17.143Z,45.83
2018-03-03T02:29:45.961Z,34.13
2018-03-03T02:32:15.310Z,42.50
2018-03-03T02:34:44.129Z,38.77
2018-03-03T02:37:13.189Z,44.87
2018-03-03T02:39:42.815Z,37.97
2018-03-03T02:42:12.100Z,37.90
2018-03-03T02:44:40.947Z,42.73
2018-03-03T02:47:10.551Z,42.10
2018-03-03T02:49:40.180Z,42.30
2018-03-03T02:52:09.033Z,45.90
2018-03-03T02:54:37.985Z,40.93
2018-03-03T02:57:07.067Z,38.20
2018-03-03T02:59:36.064Z,35.63
2018-03-03T03:02:04.902Z,45.67
2018-03-03T03:04:34.019Z,39.03
2018-03-03T03:07:02.852Z,24.50
2018-03-03T03:09:31.937Z,31.50
2018-03-03T03:12:00.913Z,37.13
2018-03-03T03:14:30.489Z,50.23
2018-03-03T03:16:59.322Z,38.20
2018-03-03T03:19:29.109Z,48.23
2018-03-03T03:21:58.721Z,34.40
2018-03-03T03:24:27.954Z,27.37
2018-03-03T03:26:57.043Z,36.60
2018-03-03T03:29:26.661Z,40.17
2018-03-03T03:31:55.474Z,35.77
2018-03-03T03:34:24.566Z,47.30
2018-03-03T03:36:53.320Z,36.13
2018-03-03T03:39:23.390Z,37.43
2018-03-03T03:41:52.180Z,39.23
2018-03-03T03:44:21.740Z,44.40
2018-03-03T03:46:51.268Z,35.50
2018-03-03T03:49:20.239Z,37.13
2018-03-03T03:51:49.849Z,37.57
2018-03-03T03:54:19.400Z,47.77
2018-03-03T03:56:49.198Z,35.10
2018-03-03T03:59:18.040Z,38.67
2018-03-03T04:01:46.951Z,32.97
2018-03-03T04:04:16.021Z,54.77
2018-03-03T04:06:44.899Z,49.80
2018-03-03T04:09:13.688Z,34.07
2018-03-03T04:11:42.707Z,35.60
2018-03-03T04:14:11.801Z,38.43
2018-03-03T04:16:40.863Z,28.37
2018-03-03T04:19:10.866Z,35.70
2018-03-03T04:21:39.786Z,40.90
2018-03-03T04:24:09.464Z,34.97
2018-03-03T04:26:39.288Z,58.27
2018-03-03T04:29:08.443Z,43.30
2018-03-03T04:31:37.697Z,44.13
2018-03-03T04:34:07.333Z,42.00
2018-03-03T04:36:36.225Z,44.57
2018-03-03T04:39:06.233Z,35.33
2018-03-03T04:41:36.159Z,42.13
2018-03-03T04:44:05.778Z,40.43
2018-03-03T04:46:34.832Z,43.87
2018-03-03T04:49:03.791Z,40.00
2018-03-03T04:51:33.637Z,43.07
2018-03-03T04:54:03.436Z,29.77
2018-03-03T04:56:32.398Z,39.30
2018-03-03T04:59:22.418Z,34.97
2018-03-03T05:02:03.989Z,33.90
2018-03-03T05:04:39.327Z,33.17
2018-03-03T05:07:10.013Z,42.63
2018-03-03T05:09:39.817Z,31.30
2018-03-03T05:12:09.513Z,36.57
2018-03-03T05:14:54.716Z,31.77
2018-03-03T05:17:42.116Z,37.10
2018-03-03T05:20:16.597Z,34.13
2018-03-03T05:22:45.552Z,35.47
2018-03-03T05:25:20.243Z,38.60
2018-03-03T05:27:55.113Z,36.67
2018-03-03T05:30:29.458Z,28.03
2018-03-03T05:33:03.924Z,38.90
2018-03-03T05:35:49.308Z,28.93
2018-03-03T05:38:35.188Z,31.53
2018-03-03T05:41:09.818Z,43.10
2018-03-03T05:43:44.304Z,25.10
2018-03-03T05:46:28.758Z,35.67
2018-03-03T05:49:03.276Z,38.87
2018-03-03T05:51:49.804Z,38.37
2018-03-03T05:54:24.337Z,33.60
2018-03-03T05:57:09.901Z,37.20
2018-03-03T05:59:59.398Z,33.07
2018-03-03T06:02:48.165Z,38.53
2018-03-03T06:05:23.244Z,43.07
2018-03-03T06:07:57.835Z,32.33
2018-03-03T06:10:44.031Z,53.50
2018-03-03T06:13:12.904Z,90.63
2018-03-03T06:15:43.163Z,44.50
2018-03-03T06:18:13.019Z,41.63
2018-03-03T06:20:42.671Z,33.33
2018-03-03T06:23:12.675Z,29.53
2018-03-03T06:25:42.573Z,33.13
2018-03-03T06:28:11.494Z,29.97
2018-03-03T06:30:41.238Z,30.23
2018-03-03T06:33:10.097Z,26.93
2018-03-03T06:35:38.968Z,38.47
2018-03-03T06:38:07.848Z,29.50
2018-03-03T06:40:37.056Z,43.57
2018-03-03T06:43:06.672Z,28.33
2018-03-03T06:45:35.539Z,31.43
2018-03-03T06:48:04.438Z,32.70
2018-03-03T06:50:33.367Z,35.73
2018-03-03T06:53:02.272Z,32.60
2018-03-03T06:55:31.208Z,43.50
2018-03-03T06:58:00.139Z,34.90
2018-03-03T07:00:29.045Z,36.37
2018-03-03T07:02:57.968Z,31.40
2018-03-03T07:05:27.634Z,21.33
2018-03-03T07:07:56.892Z,27.33
2018-03-03T07:10:25.792Z,35.60
2018-03-03T07:12:55.545Z,41.53
2018-03-03T07:15:27.171Z,36.03
2018-03-03T07:17:56.089Z,28.43
2018-03-03T07:20:25.233Z,32.77
2018-03-03T07:22:54.275Z,25.20
2018-03-03T07:25:23.119Z,33.60
2018-03-03T07:27:52.353Z,44.73
2018-03-03T07:30:21.232Z,34.47
2018-03-03T07:32:50.945Z,34.03
2018-03-03T07:35:19.829Z,44.53
2018-03-03T07:37:48.971Z,30.37
2018-03-03T07:40:18.646Z,30.37
2018-03-03T07:42:47.525Z,29.23
2018-03-03T07:45:17.579Z,27.00
2018-03-03T07:47:46.757Z,30.23
2018-03-03T07:50:15.711Z,33.97
2018-03-03T07:52:45.066Z,26.33
2018-03-03T07:55:14.114Z,21.17
2018-03-03T07:57:43.037Z,32.17
2018-03-03T08:00:11.909Z,25.07
2018-03-03T08:02:41.069Z,28.67
2018-03-03T08:05:10.240Z,17.60
2018-03-03T08:07:39.242Z,22.33
2018-03-03T08:10:08.201Z,32.07
2018-03-03T08:12:36.985Z,24.03
2018-03-03T08:15:05.935Z,21.97
2018-03-03T08:17:34.772Z,25.63
2018-03-03T08:20:03.705Z,24.77
2018-03-03T08:22:33.390Z,21.97
2018-03-03T08:25:02.330Z,23.80
2018-03-03T08:27:32.441Z,20.33
2018-03-03T08:30:01.336Z,29.13
2018-03-03T08:32:31.074Z,30.60
2018-03-03T08:35:00.859Z,31.23
2018-03-03T08:37:30.129Z,29.23
2018-03-03T08:39:58.966Z,28.37
2018-03-03T08:42:27.869Z,36.17
2018-03-03T08:44:56.777Z,36.77
2018-03-03T08:47:25.753Z,22.73
2018-03-03T08:49:54.792Z,26.13
2018-03-03T08:52:23.907Z,35.00
2018-03-03T08:54:53.817Z,32.67
2018-03-03T08:57:22.936Z,33.03
2018-03-03T08:59:51.850Z,26.73
2018-03-03T09:02:20.761Z,24.73
2018-03-03T09:04:49.620Z,19.27
2018-03-03T09:07:19.585Z,24.43
2018-03-03T09:09:48.609Z,33.13
2018-03-03T09:12:18.380Z,30.57
2018-03-03T09:14:47.680Z,30.23
2018-03-03T09:17:16.496Z,26.03
2018-03-03T09:19:45.517Z,29.57
2018-03-03T09:22:15.199Z,31.83
2018-03-03T09:24:44.059Z,26.23
2018-03-03T09:27:13.788Z,23.97
2018-03-03T09:29:43.447Z,23.20
2018-03-03T09:32:13.083Z,30.23
2018-03-03T09:34:41.994Z,22.47
2018-03-03T09:37:10.886Z,31.93
2018-03-03T09:39:39.772Z,29.83
2018-03-03T09:42:08.890Z,28.97
2018-03-03T09:44:37.741Z,25.70
2018-03-03T09:47:06.637Z,26.57
2018-03-03T09:49:37.074Z,23.40
2018-03-03T09:52:06.220Z,33.93
2018-03-03T09:54:35.981Z,34.33
2018-03-03T09:57:04.952Z,30.20
2018-03-03T09:59:33.872Z,27.53
2018-03-03T10:02:06.294Z,26.93
2018-03-03T10:04:32.445Z,30.43
2018-03-03T10:07:01.518Z,33.87
2018-03-03T10:09:31.257Z,35.53
2018-03-03T10:12:00.470Z,24.93
2018-03-03T10:14:29.435Z,33.87
2018-03-03T10:16:58.533Z,27.37
2018-03-03T10:19:27.432Z,27.30
2018-03-03T10:21:56.487Z,30.63
2018-03-03T10:24:26.206Z,25.70
2018-03-03T10:26:55.134Z,37.43
2018-03-03T10:29:24.119Z,30.97
2018-03-03T10:31:53.088Z,42.33
2018-03-03T10:34:23.004Z,26.80
2018-03-03T10:36:51.930Z,28.00
2018-03-03T10:39:21.736Z,36.70
2018-03-03T10:41:50.690Z,29.73
2018-03-03T10:44:20.315Z,31.77
2018-03-03T10:46:50.145Z,32.57
2018-03-03T10:49:19.115Z,35.10
2018-03-03T10:51:48.202Z,28.07
2018-03-03T10:54:17.055Z,31.07
2018-03-03T10:56:46.083Z,25.03
2018-03-03T10:59:15.927Z,31.67
2018-03-03T11:01:45.997Z,31.93
2018-03-03T11:04:16.723Z,33.27
2018-03-03T11:06:46.951Z,30.00
2018-03-03T11:09:18.206Z,33.60
2018-03-03T11:11:49.292Z,28.87
2018-03-03T11:14:20.606Z,31.33
2018-03-03T11:16:52.126Z,25.87
2018-03-03T11:19:23.001Z,29.07
2018-03-03T11:21:53.824Z,27.77
2018-03-03T11:24:24.752Z,28.93
2018-03-03T11:26:53.981Z,24.70
2018-03-03T11:29:23.105Z,28.07
2018-03-03T11:31:51.979Z,26.87
2018-03-03T11:34:22.080Z,24.87
2018-03-03T11:36:51.070Z,32.27
2018-03-03T11:39:20.773Z,30.53
2018-03-03T11:41:49.601Z,22.70
2018-03-03T11:44:18.459Z,29.47
2018-03-03T11:46:48.134Z,24.93
2018-03-03T11:49:17.784Z,30.53
2018-03-03T11:51:46.701Z,20.43
2018-03-03T11:54:16.601Z,22.23
2018-03-03T11:56:46.290Z,28.33
2018-03-03T11:59:15.285Z,24.80
2018-03-03T12:01:45.171Z,26.83
2018-03-03T12:04:14.083Z,46.87
2018-03-03T12:06:43.974Z,23.63
2018-03-03T12:09:14.235Z,27.50
2018-03-03T12:11:43.131Z,23.83
2018-03-03T12:14:13.109Z,21.03
2018-03-03T12:16:42.042Z,21.83
2018-03-03T12:19:10.848Z,35.10
2018-03-03T12:21:40.711Z,29.23
2018-03-03T12:24:09.560Z,30.93
2018-03-03T12:26:39.265Z,36.20
2018-03-03T12:29:08.113Z,33.00
2018-03-03T12:31:37.341Z,21.47
2018-03-03T12:34:06.196Z,22.50
2018-03-03T12:36:35.194Z,28.97
2018-03-03T12:39:04.314Z,29.63
2018-03-03T12:41:33.249Z,19.33
2018-03-03T12:44:02.999Z,23.43
2018-03-03T12:46:32.644Z,30.37
2018-03-03T12:49:01.532Z,33.90
2018-03-03T12:51:30.466Z,27.83
2018-03-03T12:54:00.159Z,27.23
2018-03-03T12:56:30.021Z,21.53
2018-03-03T12:58:58.929Z,24.30
2018-03-03T13:01:27.923Z,19.23
2018-03-03T13:03:56.774Z,20.13
2018-03-03T13:06:26.135Z,24.80
2018-03-03T13:08:55.260Z,18.97
2018-03-03T13:11:24.132Z,18.23
2018-03-03T13:13:53.892Z,23.57
2018-03-03T13:16:22.914Z,24.23
2018-03-03T13:18:51.827Z,17.60
2018-03-03T13:21:20.993Z,20.50
2018-03-03T13:23:49.998Z,37.43
2018-03-03T13:26:20.013Z,27.23
2018-03-03T13:28:48.940Z,20.00
2018-03-03T13:31:18.605Z,22.07
2018-03-03T13:33:47.693Z,18.77
2018-03-03T13:36:16.916Z,19.57
2018-03-03T13:38:45.790Z,19.80
2018-03-03T13:41:15.726Z,21.37
2018-03-03T13:43:44.743Z,23.67
2018-03-03T13:46:13.803Z,50.87
2018-03-03T13:48:43.793Z,44.67
2018-03-03T13:51:12.678Z,34.33
2018-03-03T13:53:41.802Z,26.47
2018-03-03T13:56:10.748Z,36.67
2018-03-03T13:58:40.664Z,30.33
2018-03-03T14:01:09.541Z,21.17
2018-03-03T14:03:38.449Z,28.03
2018-03-03T14:06:08.551Z,24.67
2018-03-03T14:08:37.665Z,23.53
2018-03-03T14:11:07.338Z,23.73
2018-03-03T14:13:36.716Z,40.80
2018-03-03T14:16:05.588Z,44.93
2018-03-03T14:18:34.649Z,42.43
2018-03-03T14:21:03.584Z,29.17
2018-03-03T14:23:33.344Z,35.37
2018-03-03T14:26:03.035Z,27.63
2018-03-03T14:28:32.896Z,29.23
2018-03-03T14:31:01.813Z,33.70
2018-03-03T14:33:31.568Z,36.60
2018-03-03T14:36:00.513Z,39.90
2018-03-03T14:38:29.841Z,33.23
2018-03-03T14:40:58.690Z,33.77
2018-03-03T14:43:27.893Z,30.00
2018-03-03T14:45:56.944Z,35.93
2018-03-03T14:48:26.819Z,37.53
2018-03-03T14:50:55.979Z,32.87
2018-03-03T14:53:24.916Z,37.73
2018-03-03T14:55:54.145Z,34.10
2018-03-03T14:58:23.816Z,34.13
2018-03-03T15:00:53.449Z,28.13
2018-03-03T15:03:22.427Z,27.20
2018-03-03T15:05:52.108Z,31.90
2018-03-03T15:08:21.294Z,35.40
2018-03-03T15:10:50.188Z,37.40
2018-03-03T15:13:20.687Z,41.10
2018-03-03T15:15:49.791Z,41.73
2018-03-03T15:18:19.816Z,44.20
2018-03-03T15:20:48.808Z,45.33
2018-03-03T15:23:17.761Z,49.33
2018-03-03T15:25:47.875Z,41.30
2018-03-03T15:28:17.033Z,32.40
2018-03-03T15:30:45.920Z,32.93
2018-03-03T15:33:14.846Z,36.40
2018-03-03T15:35:43.744Z,39.47
2018-03-03T15:38:12.631Z,39.17
2018-03-03T15:40:41.560Z,36.10
2018-03-03T15:43:11.380Z,45.77
2018-03-03T15:45:41.186Z,38.13
2018-03-03T15:48:10.920Z,40.90
2018-03-03T15:50:39.882Z,44.47
2018-03-03T15:53:08.892Z,41.97
2018-03-03T15:55:37.793Z,46.03
2018-03-03T15:58:07.519Z,46.17
2018-03-03T16:00:36.505Z,41.27
2018-03-03T16:03:05.425Z,54.90
2018-03-03T16:05:34.247Z,80.93
2018-03-03T16:08:04.180Z,78.83
2018-03-03T16:10:33.166Z,73.30
2018-03-03T16:13:02.443Z,58.80
2018-03-03T16:15:31.358Z,51.10
2018-03-03T16:18:00.613Z,54.17
2018-03-03T16:20:29.855Z,49.57
2018-03-03T16:22:58.796Z,51.43
2018-03-03T16:25:27.686Z,56.63
2018-03-03T16:27:56.568Z,54.27
2018-03-03T16:30:25.629Z,48.00
2018-03-03T16:32:54.462Z,55.03
2018-03-03T16:35:23.712Z,51.57
2018-03-03T16:37:52.922Z,68.23
2018-03-03T16:40:22.618Z,72.03
2018-03-03T16:42:51.698Z,54.77
2018-03-03T16:45:20.529Z,73.67
2018-03-03T16:47:49.585Z,51.87
2018-03-03T16:50:19.266Z,49.67
2018-03-03T16:52:48.077Z,64.73
2018-03-03T16:55:16.928Z,62.07
2018-03-03T16:57:46.045Z,55.60
2018-03-03T17:00:14.968Z,68.77
2018-03-03T17:02:44.609Z,58.37
2018-03-03T17:05:13.497Z,61.23
2018-03-03T17:07:42.556Z,64.50
2018-03-03T17:10:11.472Z,61.27
2018-03-03T17:12:40.552Z,61.73
2018-03-03T17:15:09.784Z,61.13
2018-03-03T17:17:38.940Z,265.20
2018-03-03T17:20:09.199Z,67.47
2018-03-03T17:22:38.282Z,65.50
2018-03-03T17:25:08.428Z,57.10
2018-03-03T17:27:38.616Z,58.17
2018-03-03T17:30:07.858Z,44.37
2018-03-03T17:32:37.051Z,51.50
2018-03-03T17:35:07.155Z,51.57
2018-03-03T17:37:36.395Z,51.70
2018-03-03T17:40:05.689Z,50.60
2018-03-03T17:42:34.945Z,40.97
2018-03-03T17:45:04.933Z,47.40
2018-03-03T17:47:34.285Z,52.07
2018-03-03T17:50:04.289Z,59.93
2018-03-03T17:52:33.315Z,44.40
2018-03-03T17:55:03.085Z,49.00
2018-03-03T17:57:31.989Z,48.00
2018-03-03T18:00:01.178Z,53.13
2018-03-03T18:02:30.140Z,49.60
2018-03-03T18:04:59.540Z,48.27
2018-03-03T18:07:28.508Z,50.73
2018-03-03T18:09:57.624Z,43.33
2018-03-03T18:12:27.081Z,43.47
2018-03-03T18:14:56.061Z,35.70
2018-03-03T18:17:26.006Z,36.70
2018-03-03T18:19:55.297Z,35.47
2018-03-03T18:22:24.351Z,87.47
2018-03-03T18:24:53.771Z,103.70
2018-03-03T18:27:23.923Z,94.80
2018-03-03T18:29:53.170Z,88.20
2018-03-03T18:32:23.495Z,84.93
2018-03-03T18:34:52.830Z,82.70
2018-03-03T18:37:21.967Z,77.20
2018-03-03T18:39:51.266Z,79.60
2018-03-03T18:42:20.383Z,87.07
2018-03-03T18:44:49.539Z,72.97
2018-03-03T18:47:19.520Z,89.47
2018-03-03T18:49:49.044Z,91.87
2018-03-03T18:52:18.185Z,96.67
2018-03-03T18:54:48.247Z,66.83
2018-03-03T18:57:19.127Z,108.43
2018-03-03T18:59:48.584Z,84.50
2018-03-03T19:02:17.925Z,105.47
2018-03-03T19:04:47.236Z,63.73
2018-03-03T19:07:16.416Z,190.37
2018-03-03T19:09:45.938Z,224.47
2018-03-03T19:12:15.195Z,169.40
2018-03-03T19:14:44.463Z,88.43
2018-03-03T19:17:13.990Z,47.13
2018-03-03T19:19:44.080Z,85.53
2018-03-03T19:22:13.243Z,40.63
2018-03-03T19:24:42.703Z,36.20
2018-03-03T19:27:12.278Z,36.73
2018-03-03T19:29:41.887Z,41.43
2018-03-03T19:32:11.306Z,42.57
2018-03-03T19:34:41.361Z,76.60
2018-03-03T19:37:10.920Z,57.17
2018-03-03T19:39:40.137Z,61.63
2018-03-03T19:42:10.123Z,118.67
2018-03-03T19:44:39.479Z,80.60
2018-03-03T19:47:09.037Z,60.73
2018-03-03T19:49:38.534Z,76.13
2018-03-03T19:52:07.934Z,70.37
2018-03-03T19:54:38.980Z,68.03
2018-03-03T19:57:08.412Z,50.90
2018-03-03T19:59:39.103Z,28.03
2018-03-03T20:02:08.636Z,30.77
2018-03-03T20:04:38.097Z,36.77
2018-03-03T20:07:07.311Z,31.60
2018-03-03T20:09:36.670Z,38.97
2018-03-03T20:12:06.112Z,44.87
2018-03-03T20:14:35.665Z,40.07
2018-03-03T20:17:05.742Z,30.10
2018-03-03T20:19:35.028Z,32.87
2018-03-03T20:22:04.244Z,29.03
2018-03-03T20:24:33.640Z,24.80
2018-03-03T20:27:02.831Z,27.47
2018-03-03T20:29:32.046Z,26.80
2018-03-03T20:32:01.318Z,33.37
2018-03-03T20:34:30.775Z,27.53
2018-03-03T20:37:00.135Z,29.67
2018-03-03T20:39:29.514Z,26.50
2018-03-03T20:41:59.675Z,25.93
2018-03-03T20:44:32.099Z,33.40
2018-03-03T20:47:04.639Z,28.97
2018-03-03T20:49:34.833Z,37.13
2018-03-03T20:52:05.835Z,42.00
2018-03-03T20:54:35.367Z,33.77
2018-03-03T20:57:05.776Z,30.83
2018-03-03T20:59:35.044Z,35.10
2018-03-03T21:02:04.424Z,37.30
2018-03-03T21:04:33.603Z,34.17
2018-03-03T21:07:04.850Z,26.60
2018-03-03T21:09:34.238Z,37.67
2018-03-03T21:12:03.753Z,26.73
2018-03-03T21:14:33.007Z,25.13
2018-03-03T21:17:02.985Z,34.20
2018-03-03T21:19:32.457Z,32.90
2018-03-03T21:22:01.804Z,34.67
2018-03-03T21:24:31.097Z,32.47
2018-03-03T21:27:00.383Z,36.17
2018-03-03T21:29:29.665Z,35.97
2018-03-03T21:31:59.368Z,33.93
2018-03-03T21:34:28.701Z,30.57
2018-03-03T21:36:58.087Z,61.53
2018-03-03T21:39:45.267Z,36.33
2018-03-03T21:42:18.284Z,111.40
2018-03-03T21:44:47.641Z,139.60
2018-03-03T21:47:17.177Z,89.30
2018-03-03T21:49:46.501Z,45.73
2018-03-03T21:52:15.727Z,26.00
2018-03-03T21:54:45.441Z,32.70
2018-03-03T21:57:15.060Z,34.57
2018-03-03T21:59:45.115Z,27.30
2018-03-03T22:02:14.109Z,26.67
2018-03-03T22:04:43.147Z,26.13
2018-03-03T22:07:12.842Z,29.17
2018-03-03T22:09:41.726Z,28.07
2018-03-03T22:12:10.589Z,32.33
2018-03-03T22:14:39.432Z,30.87
2018-03-03T22:17:08.369Z,34.80
2018-03-03T22:19:38.269Z,37.90
2018-03-03T22:22:07.150Z,35.57
2018-03-03T22:24:36.723Z,36.40
2018-03-03T22:27:06.412Z,39.83
2018-03-03T22:29:35.308Z,29.83
2018-03-03T22:32:04.223Z,40.20
2018-03-03T22:34:34.333Z,48.73
2018-03-03T22:37:04.193Z,36.90
2018-03-03T22:39:33.072Z,45.67
2018-03-03T22:42:02.161Z,45.70
2018-03-03T22:44:31.048Z,47.77
2018-03-03T22:47:00.025Z,38.30
2018-03-03T22:49:29.050Z,39.90
2018-03-03T22:51:58.154Z,41.50
2018-03-03T22:54:28.039Z,43.43
2018-03-03T22:56:56.901Z,37.27
2018-03-03T22:59:26.054Z,38.00
2018-03-03T23:01:55.310Z,34.30
2018-03-03T23:04:24.266Z,33.53
2018-03-03T23:06:54.082Z,33.03
2018-03-03T23:09:23.180Z,33.53
2018-03-03T23:11:52.329Z,32.73
2018-03-03T23:14:21.397Z,31.23
2018-03-03T23:16:50.597Z,39.40
2018-03-03T23:19:19.614Z,33.27
2018-03-03T23:21:49.712Z,43.87
2018-03-03T23:24:18.748Z,61.37
2018-03-03T23:26:47.582Z,42.70
2018-03-03T23:29:17.574Z,64.50
2018-03-03T23:31:46.372Z,49.53
2018-03-03T23:34:15.413Z,32.67
2018-03-03T23:36:44.342Z,27.50
2018-03-03T23:39:14.267Z,48.40
2018-03-03T23:41:43.121Z,61.70
2018-03-03T23:44:11.993Z,35.90
2018-03-03T23:46:41.628Z,25.27
2018-03-03T23:49:10.773Z,28.97
2018-03-03T23:51:39.672Z,65.93
2018-03-03T23:54:08.630Z,33.63
2018-03-03T23:56:37.545Z,73.87
2018-03-03T23:59:07.594Z,72.13
